createdAt,value
2022-11-22T00:00:07.920Z,5.30
2022-11-22T00:02:38.300Z,4.80
2022-11-22T00:05:09.900Z,4.90
2022-11-22T00:07:40.583Z,4.10
2022-11-22T00:10:13.020Z,3.80
2022-11-22T00:12:43.481Z,5.30
2022-11-22T00:15:14.962Z,5.40
2022-11-22T00:17:45.421Z,5.30
2022-11-22T00:20:16.488Z,4.50
2022-11-22T00:22:46.958Z,4.70
2022-11-22T00:25:17.952Z,5.00
2022-11-22T00:27:48.487Z,5.20
2022-11-22T00:30:19.320Z,5.30
2022-11-22T00:32:49.950Z,4.70
2022-11-22T00:35:20.583Z,4.90
2022-11-22T00:37:51.234Z,3.20
2022-11-22T00:40:21.763Z,4.90
2022-11-22T00:42:52.514Z,5.20
2022-11-22T00:45:22.931Z,5.10
2022-11-22T00:47:53.471Z,4.50
2022-11-22T00:50:23.877Z,4.60
2022-11-22T00:52:54.292Z,4.30
2022-11-22T00:55:24.726Z,4.30
2022-11-22T00:57:55.121Z,4.40
2022-11-22T01:00:25.840Z,5.50
2022-11-22T01:02:56.296Z,5.00
2022-11-22T01:05:27.006Z,4.30
2022-11-22T01:07:58.108Z,4.40
2022-11-22T01:10:28.538Z,4.70
2022-11-22T01:12:59.231Z,4.40
2022-11-22T01:15:29.596Z,4.40
2022-11-22T01:18:00.036Z,4.60
2022-11-22T01:20:31.280Z,5.00
2022-11-22T01:23:01.639Z,4.70
2022-11-22T01:25:32.165Z,4.60
2022-11-22T01:28:02.615Z,4.30
2022-11-22T01:30:33.012Z,4.50
2022-11-22T01:33:06.430Z,4.00
2022-11-22T01:35:36.886Z,3.20
2022-11-22T01:38:07.226Z,3.80
2022-11-22T01:40:38.143Z,4.10
2022-11-22T01:43:15.488Z,3.90
2022-11-22T01:45:48.736Z,4.10
2022-11-22T01:48:33.734Z,4.30
2022-11-22T01:51:06.918Z,5.30
2022-11-22T01:53:39.359Z,3.80
2022-11-22T01:56:12.684Z,4.20
2022-11-22T01:58:44.538Z,3.30
2022-11-22T02:01:16.214Z,4.00
2022-11-22T02:03:49.749Z,4.20
2022-11-22T02:06:21.610Z,4.40
2022-11-22T02:08:59.080Z,3.30
2022-11-22T02:11:34.301Z,4.60
2022-11-22T02:14:08.219Z,3.30
2022-11-22T02:16:40.616Z,4.10
2022-11-22T02:21:44.873Z,4.10
2022-11-22T02:24:20.953Z,3.80
2022-11-22T02:26:53.089Z,4.30
2022-11-22T02:29:24.758Z,3.70
2022-11-22T02:31:57.702Z,4.60
2022-11-22T02:34:30.683Z,5.40
2022-11-22T02:39:34.353Z,5.10
2022-11-22T02:42:06.684Z,5.80
2022-11-22T02:44:39.806Z,5.00
2022-11-22T02:47:12.695Z,4.40
2022-11-22T02:49:44.995Z,5.70
2022-11-22T02:52:20.388Z,6.70
2022-11-22T02:54:52.503Z,5.90
2022-11-22T02:57:24.723Z,6.20
2022-11-22T02:59:56.890Z,6.50
2022-11-22T03:08:57.635Z,8.10
2022-11-22T03:11:28.039Z,7.50
2022-11-22T03:13:58.551Z,7.10
2022-11-22T03:16:30.913Z,7.40
2022-11-22T03:19:01.340Z,7.90
2022-11-22T03:21:31.741Z,8.10
2022-11-22T03:24:02.287Z,8.90
2022-11-22T03:26:32.732Z,8.20
2022-11-22T03:29:03.191Z,7.00
2022-11-22T03:31:33.744Z,7.80
2022-11-22T03:34:04.122Z,7.50
2022-11-22T03:36:34.536Z,9.30
2022-11-22T03:39:05.002Z,9.00
2022-11-22T03:41:35.377Z,7.50
2022-11-22T03:44:06.304Z,7.50
2022-11-22T03:46:36.805Z,7.40
2022-11-22T03:49:07.227Z,7.20
2022-11-22T03:51:37.610Z,8.30
2022-11-22T03:54:08.258Z,9.70
2022-11-22T03:56:38.728Z,9.10
2022-11-22T03:59:09.219Z,9.00
2022-11-22T04:01:39.705Z,8.50
2022-11-22T04:04:11.080Z,8.10
2022-11-22T04:06:41.474Z,10.10
2022-11-22T04:09:12.659Z,9.10
2022-11-22T04:11:43.244Z,8.80
2022-11-22T04:14:33.159Z,8.20
2022-11-22T04:17:03.584Z,7.50
2022-11-22T04:19:34.352Z,9.40
2022-11-22T04:22:04.796Z,8.80
2022-11-22T04:24:52.784Z,9.90
2022-11-22T04:27:23.339Z,8.00
2022-11-22T04:29:53.779Z,8.80
2022-11-22T04:32:41.685Z,9.30
2022-11-22T04:35:12.425Z,10.50
2022-11-22T04:37:43.275Z,10.00
2022-11-22T04:40:14.376Z,9.40
2022-11-22T04:43:02.318Z,8.90
2022-11-22T04:45:32.718Z,7.50
2022-11-22T04:48:03.977Z,9.00
2022-11-22T04:50:52.415Z,8.60
2022-11-22T04:53:22.884Z,11.20
2022-11-22T04:55:53.652Z,8.50
2022-11-22T04:58:24.412Z,9.10
2022-11-22T05:00:54.907Z,8.80
2022-11-22T05:03:25.435Z,8.80
2022-11-22T05:05:55.842Z,9.10
2022-11-22T05:08:26.244Z,9.20
2022-11-22T05:10:59.312Z,9.70
2022-11-22T05:13:32.261Z,8.80
2022-11-22T05:18:32.230Z,7.80
2022-11-22T05:21:06.913Z,8.10
2022-11-22T05:23:55.565Z,8.90
2022-11-22T05:26:27.127Z,9.20
2022-11-22T05:28:58.983Z,8.50
2022-11-22T05:31:29.531Z,8.30
2022-11-22T05:33:59.968Z,8.30
2022-11-22T05:36:31.893Z,6.80
2022-11-22T05:39:03.067Z,9.90
2022-11-22T05:41:33.668Z,10.20
2022-11-22T05:44:04.422Z,10.70
2022-11-22T05:46:35.040Z,8.70
2022-11-22T05:49:05.654Z,8.80
2022-11-22T05:51:36.151Z,9.40
2022-11-22T05:54:06.834Z,8.60
2022-11-22T05:56:37.332Z,8.80
2022-11-22T05:59:07.945Z,9.00
2022-11-22T06:01:38.430Z,8.70
2022-11-22T06:04:09.098Z,7.40
2022-11-22T06:06:39.712Z,7.90
2022-11-22T06:09:12.806Z,6.80
2022-11-22T06:14:12.159Z,8.30
2022-11-22T06:16:42.647Z,7.00
2022-11-22T06:19:13.640Z,5.00
2022-11-22T06:21:44.254Z,7.40
2022-11-22T06:24:14.650Z,6.40
2022-11-22T06:26:45.035Z,6.50
2022-11-22T06:29:15.588Z,5.90
2022-11-22T06:31:46.008Z,5.20
2022-11-22T06:34:16.547Z,5.30
2022-11-22T06:36:47.102Z,4.80
2022-11-22T06:39:17.567Z,5.10
2022-11-22T06:41:48.018Z,5.60
2022-11-22T06:44:18.463Z,4.80
2022-11-22T06:46:48.974Z,4.10
2022-11-22T06:49:19.490Z,5.80
2022-11-22T06:51:49.845Z,4.50
2022-11-22T06:54:20.191Z,4.60
2022-11-22T06:56:50.601Z,4.10
2022-11-22T06:59:20.977Z,3.60
2022-11-22T07:01:51.586Z,3.00
2022-11-22T07:04:22.084Z,3.60
2022-11-22T07:06:52.559Z,2.80
2022-11-22T07:09:22.971Z,3.20
2022-11-22T07:11:56.441Z,5.40
2022-11-22T07:14:26.962Z,4.20
2022-11-22T07:16:57.342Z,3.50
2022-11-22T07:19:28.104Z,2.30
2022-11-22T07:21:58.813Z,2.60
2022-11-22T07:24:30.250Z,3.70
2022-11-22T07:27:00.590Z,3.50
2022-11-22T07:29:31.253Z,2.40
2022-11-22T07:32:01.948Z,3.50
2022-11-22T07:34:32.323Z,2.80
2022-11-22T07:37:08.715Z,2.80
2022-11-22T07:39:39.687Z,4.20
2022-11-22T07:42:10.128Z,2.30
2022-11-22T07:44:41.042Z,3.40
2022-11-22T07:47:11.519Z,3.10
2022-11-22T07:49:41.966Z,2.90
2022-11-22T07:52:12.443Z,2.30
2022-11-22T07:54:42.831Z,3.20
2022-11-22T07:57:13.300Z,3.10
2022-11-22T07:59:43.706Z,3.30
2022-11-22T08:02:14.723Z,2.40
2022-11-22T08:04:45.188Z,4.00
2022-11-22T08:07:15.762Z,2.50
2022-11-22T08:09:46.217Z,2.60
2022-11-22T08:12:16.640Z,3.10
2022-11-22T08:14:47.158Z,2.60
2022-11-22T08:17:17.702Z,2.20
2022-11-22T08:19:49.322Z,2.40
2022-11-22T08:22:19.772Z,2.20
2022-11-22T08:24:50.188Z,3.00
2022-11-22T08:27:20.581Z,2.60
2022-11-22T08:29:50.944Z,2.30
2022-11-22T08:32:21.356Z,3.30
2022-11-22T08:34:51.673Z,2.20
2022-11-22T08:37:22.372Z,2.10
2022-11-22T08:39:52.885Z,2.50
2022-11-22T08:42:23.258Z,2.00
2022-11-22T08:44:53.584Z,2.70
2022-11-22T08:47:23.997Z,1.90
2022-11-22T08:49:54.371Z,2.50
2022-11-22T08:52:24.734Z,2.90
2022-11-22T08:54:55.205Z,3.20
2022-11-22T08:57:25.700Z,2.40
2022-11-22T08:59:56.047Z,2.10
2022-11-22T09:02:26.524Z,1.70
2022-11-22T09:04:56.977Z,1.80
2022-11-22T09:10:18.802Z,2.00
2022-11-22T09:12:49.448Z,1.90
2022-11-22T09:15:20.028Z,1.60
2022-11-22T09:17:50.788Z,1.40
2022-11-22T09:20:21.353Z,2.50
2022-11-22T09:22:51.886Z,1.90
2022-11-22T09:25:22.370Z,1.60
2022-11-22T09:27:52.752Z,2.00
2022-11-22T09:30:23.332Z,1.70
2022-11-22T09:32:53.826Z,3.10
2022-11-22T09:35:24.228Z,1.70
2022-11-22T09:37:54.619Z,1.90
2022-11-22T09:40:25.008Z,1.70
2022-11-22T09:43:11.425Z,2.10
2022-11-22T09:45:54.609Z,2.60
2022-11-22T09:51:03.219Z,2.40
2022-11-22T09:53:38.183Z,1.60
2022-11-22T09:56:13.031Z,1.60
2022-11-22T09:58:47.598Z,2.20
2022-11-22T10:01:21.507Z,1.90
2022-11-22T10:03:57.236Z,3.00
2022-11-22T10:06:30.404Z,1.90
2022-11-22T10:09:09.263Z,2.80
2022-11-22T10:11:44.058Z,1.50
2022-11-22T10:14:23.670Z,1.70
2022-11-22T10:16:58.488Z,1.50
2022-11-22T10:19:35.790Z,1.40
2022-11-22T10:22:12.293Z,2.70
2022-11-22T10:24:42.879Z,1.90
2022-11-22T10:27:14.563Z,1.80
2022-11-22T10:29:49.674Z,1.80
2022-11-22T10:32:24.237Z,1.90
2022-11-22T10:35:05.140Z,1.90
2022-11-22T10:37:43.293Z,1.30
2022-11-22T10:40:21.016Z,1.70
2022-11-22T10:43:04.398Z,1.60
2022-11-22T10:45:37.327Z,1.70
2022-11-22T10:50:49.380Z,1.20
2022-11-22T10:53:26.546Z,1.70
2022-11-22T10:56:00.799Z,1.90
2022-11-22T10:58:39.031Z,1.70
2022-11-22T11:01:18.809Z,1.40
2022-11-22T11:03:51.129Z,1.50
2022-11-22T11:06:43.168Z,2.20
2022-11-22T11:12:07.339Z,1.70
2022-11-22T11:14:41.001Z,1.40
2022-11-22T11:17:16.237Z,1.60
2022-11-22T11:19:48.653Z,1.90
2022-11-22T11:22:37.625Z,1.80
2022-11-22T11:25:33.281Z,2.00
2022-11-22T11:28:06.583Z,1.50
2022-11-22T11:30:42.081Z,1.80
2022-11-22T11:33:21.422Z,2.50
2022-11-22T11:35:54.969Z,1.80
2022-11-22T11:38:37.212Z,1.80
2022-11-22T11:41:22.957Z,1.30
2022-11-22T11:43:54.927Z,1.60
2022-11-22T11:46:26.762Z,1.60
2022-11-22T11:48:59.329Z,1.70
2022-11-22T11:51:37.204Z,2.80
2022-11-22T11:54:12.786Z,1.60
2022-11-22T11:56:47.904Z,2.00
2022-11-22T11:59:20.660Z,1.20
2022-11-22T12:01:56.631Z,1.00
2022-11-22T12:04:30.177Z,1.60
2022-11-22T12:07:05.060Z,1.20
2022-11-22T12:09:44.358Z,1.40
2022-11-22T12:12:37.163Z,1.40
2022-11-22T12:15:16.672Z,1.80
2022-11-22T12:18:26.763Z,1.50
2022-11-22T12:21:04.672Z,2.00
2022-11-22T12:23:39.132Z,2.10
2022-11-22T12:26:10.380Z,1.90
2022-11-22T12:28:40.950Z,1.30
2022-11-22T12:31:18.480Z,1.40
2022-11-22T12:33:53.672Z,1.40
2022-11-22T12:36:32.689Z,1.70
2022-11-22T12:39:05.092Z,1.60
2022-11-22T12:41:36.303Z,1.30
2022-11-22T12:44:11.379Z,2.00
2022-11-22T12:46:43.707Z,1.70
2022-11-22T12:49:18.566Z,1.10
2022-11-22T12:51:50.532Z,1.50
2022-11-22T12:54:23.779Z,1.20
2022-11-22T12:56:56.802Z,1.30
2022-11-22T13:02:04.658Z,1.20
2022-11-22T13:04:40.296Z,1.20
2022-11-22T13:07:16.591Z,1.40
2022-11-22T13:09:52.551Z,1.00
2022-11-22T13:12:26.500Z,1.20
2022-11-22T13:15:00.143Z,0.90
2022-11-22T13:17:34.709Z,1.30
2022-11-22T13:20:08.405Z,1.40
2022-11-22T13:22:47.821Z,0.90
2022-11-22T13:25:34.164Z,1.30
2022-11-22T13:28:10.505Z,1.30
2022-11-22T13:30:41.259Z,1.30
2022-11-22T13:33:25.550Z,1.00
2022-11-22T13:36:25.717Z,1.20
2022-11-22T13:38:58.327Z,1.20
2022-11-22T13:41:31.323Z,1.20
2022-11-22T13:46:57.926Z,1.20
2022-11-22T13:49:46.609Z,1.20
2022-11-22T13:52:49.481Z,1.00
2022-11-22T13:55:38.807Z,1.20
2022-11-22T13:58:50.434Z,1.00
2022-11-22T14:01:57.008Z,1.30
2022-11-22T14:04:35.754Z,1.40
2022-11-22T14:07:08.289Z,1.00
2022-11-22T14:09:41.689Z,1.70
2022-11-22T14:12:45.152Z,1.20
2022-11-22T14:15:23.103Z,1.00
2022-11-22T14:18:02.113Z,0.90
2022-11-22T14:20:45.207Z,1.30
2022-11-22T14:23:24.262Z,1.40
2022-11-22T14:26:04.314Z,1.30
2022-11-22T14:28:53.908Z,1.20
2022-11-22T14:31:26.573Z,1.50
2022-11-22T14:34:19.701Z,1.10
2022-11-22T14:37:27.124Z,1.40
2022-11-22T14:40:13.475Z,1.30
2022-11-22T14:42:58.408Z,1.20
2022-11-22T14:45:49.061Z,2.30
2022-11-22T14:48:24.219Z,1.60
2022-11-22T14:50:58.390Z,3.00
2022-11-22T14:53:34.429Z,1.20
2022-11-22T14:56:13.651Z,0.90
2022-11-22T14:58:47.432Z,1.50
2022-11-22T15:01:43.938Z,1.00
2022-11-22T15:09:18.711Z,1.00
2022-11-22T15:09:20.799Z,1.30
2022-11-22T15:11:10.001Z,1.70
2022-11-22T15:13:56.465Z,1.30
2022-11-22T15:57:27.736Z,1.10
2022-11-22T15:59:58.509Z,1.20
2022-11-22T16:02:31.151Z,1.30
2022-11-22T16:06:05.674Z,1.60
2022-11-22T16:07:56.151Z,1.50
2022-11-22T16:10:28.434Z,1.60
2022-11-22T16:12:58.847Z,0.90
2022-11-22T16:15:36.152Z,1.10
2022-11-22T16:18:13.736Z,1.40
2022-11-22T16:20:50.973Z,1.10
2022-11-22T16:23:28.228Z,1.20
2022-11-22T16:26:00.978Z,1.10
2022-11-22T16:28:37.889Z,1.20
2022-11-22T16:31:17.100Z,1.30
2022-11-22T16:33:47.866Z,1.40
2022-11-22T16:36:19.582Z,1.20
2022-11-22T16:38:50.384Z,1.00
2022-11-22T16:41:22.058Z,2.10
2022-11-22T16:43:53.596Z,1.10
2022-11-22T16:46:24.408Z,1.30
2022-11-22T16:48:54.795Z,1.30
2022-11-22T16:51:28.438Z,1.30
2022-11-22T16:54:01.766Z,1.10
2022-11-22T16:56:33.230Z,1.30
2022-11-22T16:59:06.885Z,1.20
2022-11-22T17:01:42.579Z,1.40
2022-11-22T17:04:20.895Z,1.00
2022-11-22T17:06:51.611Z,1.10
2022-11-22T17:09:22.130Z,1.40
2022-11-22T17:11:52.817Z,1.90
2022-11-22T17:14:23.431Z,2.20
2022-11-22T17:16:53.890Z,2.00
2022-11-22T17:19:51.583Z,2.30
2022-11-22T17:22:16.405Z,1.60
2022-11-22T17:24:46.974Z,1.70
2022-11-22T17:27:17.456Z,2.00
2022-11-22T17:29:50.619Z,1.80
2022-11-22T17:32:21.661Z,1.90
2022-11-22T17:34:52.119Z,2.10
2022-11-22T17:37:22.561Z,2.20
2022-11-22T17:39:54.565Z,3.00
2022-11-22T17:42:25.018Z,1.90
2022-11-22T17:44:55.398Z,2.10
2022-11-22T17:47:25.835Z,1.90
2022-11-22T17:49:56.182Z,2.00
2022-11-22T17:52:27.061Z,1.90
2022-11-22T17:55:03.559Z,1.90
2022-11-22T17:57:36.428Z,2.50
2022-11-22T18:00:09.059Z,2.00
2022-11-22T18:02:39.552Z,1.90
2022-11-22T18:05:10.947Z,2.30
2022-11-22T18:07:41.815Z,1.80
2022-11-22T18:10:13.354Z,1.80
2022-11-22T18:12:52.541Z,2.30
2022-11-22T18:15:34.638Z,2.10
2022-11-22T18:18:05.595Z,2.80
2022-11-22T18:20:36.242Z,2.30
2022-11-22T18:23:06.626Z,2.30
2022-11-22T18:25:39.182Z,2.40
2022-11-22T18:28:09.648Z,2.80
2022-11-22T18:30:41.959Z,3.30
2022-11-22T18:33:12.540Z,2.70
2022-11-22T18:35:48.473Z,2.30
2022-11-22T18:40:55.104Z,3.10
2022-11-22T18:43:25.707Z,3.20
2022-11-22T18:46:02.301Z,3.60
2022-11-22T18:48:33.275Z,2.70
2022-11-22T18:51:08.162Z,3.50
2022-11-22T18:53:40.394Z,3.70
2022-11-22T18:56:12.778Z,4.10
2022-11-22T18:58:44.043Z,3.70
2022-11-22T19:01:16.187Z,4.90
2022-11-22T19:06:20.095Z,4.60
2022-11-22T19:08:51.711Z,3.00
2022-11-22T19:11:23.156Z,4.10
2022-11-22T19:13:55.043Z,3.80
2022-11-22T19:16:30.476Z,5.70
2022-11-22T19:19:02.749Z,4.70
2022-11-22T19:21:35.323Z,4.30
2022-11-22T19:24:09.054Z,4.50
2022-11-22T19:26:43.234Z,4.80
2022-11-22T19:29:14.878Z,4.50
2022-11-22T19:31:46.355Z,5.10
2022-11-22T19:34:18.848Z,4.00
2022-11-22T19:36:51.704Z,5.10
2022-11-22T19:39:25.581Z,4.10
2022-11-22T19:41:57.379Z,4.70
2022-11-22T19:44:30.156Z,3.80
2022-11-22T19:47:02.933Z,4.80
2022-11-22T19:49:35.104Z,4.50
2022-11-22T19:52:08.548Z,2.80
2022-11-22T19:54:40.246Z,4.60
2022-11-22T19:57:11.661Z,4.60
2022-11-22T19:59:43.710Z,4.60
2022-11-22T20:09:19.456Z,4.50
2022-11-22T20:11:50.015Z,4.70
2022-11-22T20:14:20.690Z,4.80
2022-11-22T20:16:51.153Z,4.80
2022-11-22T20:19:21.598Z,5.20
2022-11-22T20:21:52.038Z,5.10
2022-11-22T20:24:22.596Z,5.70
2022-11-22T20:26:53.104Z,5.60
2022-11-22T20:29:24.958Z,5.60
2022-11-22T20:31:56.490Z,5.70
2022-11-22T20:34:29.656Z,6.40
2022-11-22T20:37:01.962Z,4.90
2022-11-22T20:39:35.338Z,4.60
2022-11-22T20:42:32.944Z,6.00
2022-11-22T20:44:56.410Z,5.40
2022-11-22T20:47:26.776Z,6.70
2022-11-22T20:49:57.460Z,6.40
2022-11-22T20:52:27.984Z,6.60
2022-11-22T20:55:03.479Z,7.10
2022-11-22T20:57:35.631Z,6.60
2022-11-22T21:00:07.278Z,6.00
2022-11-22T21:02:37.775Z,6.30
2022-11-22T21:05:12.019Z,6.50
2022-11-22T21:07:42.568Z,7.00
2022-11-22T21:10:13.077Z,6.20
2022-11-22T21:12:43.541Z,6.90
2022-11-22T21:15:15.323Z,7.20
2022-11-22T21:18:02.430Z,6.60
2022-11-22T21:20:37.276Z,6.40
2022-11-22T21:23:07.906Z,8.10
2022-11-22T21:25:38.461Z,7.60
2022-11-22T21:28:09.041Z,7.30
2022-11-22T21:30:39.483Z,7.10
2022-11-22T21:33:09.922Z,8.30
2022-11-22T21:35:42.754Z,6.40
2022-11-22T21:38:16.169Z,7.90
2022-11-22T21:40:58.319Z,7.30
2022-11-22T21:43:36.195Z,7.80
2022-11-22T21:46:22.186Z,7.10
2022-11-22T21:48:55.940Z,7.40
2022-11-22T21:51:27.034Z,7.30
2022-11-22T21:53:59.864Z,7.80
2022-11-22T21:56:30.562Z,7.00
2022-11-22T21:59:00.966Z,7.60
2022-11-22T22:01:31.401Z,6.50
2022-11-22T22:04:01.815Z,7.50
2022-11-22T22:06:32.230Z,7.60
2022-11-22T22:09:02.821Z,8.10
2022-11-22T22:11:33.196Z,7.30
2022-11-22T22:14:03.686Z,6.70
2022-11-22T22:16:34.071Z,8.30
2022-11-22T22:19:09.333Z,7.40
2022-11-22T22:21:40.080Z,5.40
2022-11-22T22:24:11.949Z,7.90
2022-11-22T22:26:42.972Z,7.70
2022-11-22T22:29:13.611Z,7.10
2022-11-22T22:31:44.024Z,7.60
2022-11-22T22:34:16.253Z,8.00
2022-11-22T22:36:46.828Z,8.00
2022-11-22T22:39:17.239Z,8.00
2022-11-22T22:41:47.612Z,7.60
2022-11-22T22:44:18.023Z,7.60
2022-11-22T22:46:48.411Z,7.80
2022-11-22T22:49:18.815Z,7.10
2022-11-22T22:51:51.333Z,5.80
2022-11-22T22:54:21.762Z,6.90
2022-11-22T22:56:52.595Z,7.20
2022-11-22T22:59:23.146Z,7.30
2022-11-22T23:01:53.610Z,7.10
2022-11-22T23:04:24.160Z,6.80
2022-11-22T23:06:54.865Z,7.40
2022-11-22T23:09:25.323Z,7.40
2022-11-22T23:12:14.051Z,8.10
2022-11-22T23:14:45.004Z,7.90
2022-11-22T23:17:15.369Z,8.90
2022-11-22T23:19:45.782Z,10.10
2022-11-22T23:22:16.191Z,8.00
2022-11-22T23:24:46.646Z,7.90
2022-11-22T23:27:17.323Z,7.20
2022-11-22T23:29:47.843Z,6.90
2022-11-22T23:32:18.228Z,6.70
2022-11-22T23:34:48.635Z,7.90
2022-11-22T23:37:19.212Z,8.20
2022-11-22T23:39:51.445Z,6.90
2022-11-22T23:42:21.803Z,6.30
2022-11-22T23:44:52.463Z,7.80
2022-11-22T23:47:22.891Z,6.20
2022-11-22T23:49:53.481Z,7.70
2022-11-22T23:52:23.850Z,8.60
2022-11-22T23:54:54.251Z,7.50
2022-11-22T23:57:24.886Z,6.30
2022-11-22T23:59:55.305Z,5.90
